Time;durP1;ratioP1;P1;durP2;ratioP2;P2;SDS_P1;SDS_P2;PMS_P1;PMS_P2;Temp;Humidity;BMP_temperature;BMP_pressure;BME280_temperature;BME280_humidity;BME280_pressure;Samples;Min_cycle;Max_cycle;Signal;HPM_P1;HPM_P2
2023/12/27 00:02:07;;;;;;;0.00;0.00;;;;;;;10.51;57.47;100244.69;4445323;32;32802;-79
2023/12/27 00:04:34;;;;;;;0.75;0.75;;;;;;;10.52;57.09;100232.34;4432767;32;32589;-78
2023/12/27 00:07:02;;;;;;;0.57;0.57;;;;;;;10.62;57.21;100231.06;4458538;32;34575;-79
2023/12/27 00:09:30;;;;;;;0.03;0.00;;;;;;;10.57;57.42;100234.81;4459573;32;33096;-78
2023/12/27 00:11:58;;;;;;;0.00;0.00;;;;;;;10.56;57.29;100231.31;4451412;32;33198;-78
2023/12/27 00:14:25;;;;;;;0.25;0.25;;;;;;;10.54;57.18;100240.19;4433339;32;34183;-79
2023/12/27 00:16:53;;;;;;;0.00;0.00;;;;;;;10.77;56.26;100232.28;4444720;32;33877;-79
2023/12/27 00:19:20;;;;;;;0.20;0.15;;;;;;;10.50;57.08;100248.25;4459162;32;33316;-79
2023/12/27 00:21:48;;;;;;;0.00;0.00;;;;;;;10.69;56.71;100234.38;4446943;32;32902;-79
2023/12/27 00:24:16;;;;;;;0.00;0.00;;;;;;;11.02;56.13;100238.38;4464564;32;33895;-80
2023/12/27 00:26:44;;;;;;;0.00;0.00;;;;;;;10.95;56.07;100239.53;4447954;32;33458;-79
2023/12/27 00:29:14;;;;;;;0.00;0.00;;;;;;;10.45;58.08;100244.91;4444467;32;32593;-79
2023/12/27 00:31:42;;;;;;;0.52;0.52;;;;;;;10.90;56.52;100251.19;4445013;32;33108;-79
2023/12/27 00:34:10;;;;;;;0.37;0.35;;;;;;;10.78;57.02;100249.88;4447526;32;33858;-79
2023/12/27 00:36:37;;;;;;;0.00;0.00;;;;;;;10.62;57.56;100264.56;4434298;32;33007;-79
2023/12/27 00:39:08;;;;;;;0.52;0.52;;;;;;;10.77;56.78;100253.41;4459153;32;34103;-79
2023/12/27 00:41:35;;;;;;;0.00;0.00;;;;;;;10.72;56.73;100260.66;4450876;32;33525;-79
2023/12/27 00:44:03;;;;;;;0.00;0.00;;;;;;;10.39;58.00;100266.22;4446704;32;33563;-78
2023/12/27 00:46:31;;;;;;;0.25;0.25;;;;;;;10.75;56.64;100268.47;4459445;32;34153;-79
2023/12/27 00:48:59;;;;;;;0.00;0.00;;;;;;;10.83;56.31;100274.34;4460321;32;33803;-78
2023/12/27 00:51:27;;;;;;;0.00;0.00;;;;;;;10.85;56.14;100277.78;4431813;32;32684;-78
2023/12/27 00:53:55;;;;;;;1.12;0.85;;;;;;;11.09;55.11;100270.69;4458589;32;33773;-78
2023/12/27 00:56:23;;;;;;;0.65;0.55;;;;;;;10.42;56.89;100274.06;4448557;32;34279;-78
2023/12/27 00:58:51;;;;;;;0.10;0.10;;;;;;;10.60;56.38;100287.53;4460276;32;32658;-79
2023/12/27 01:01:19;;;;;;;0.00;0.00;;;;;;;10.72;56.00;100289.69;4432429;32;32465;-79
2023/12/27 01:03:47;;;;;;;0.20;0.20;;;;;;;10.95;55.37;100289.72;4446088;32;32421;-79
2023/12/27 01:06:15;;;;;;;0.00;0.00;;;;;;;10.84;55.63;100286.62;4436051;32;34101;-79
2023/12/27 01:08:43;;;;;;;0.10;0.10;;;;;;;11.09;54.63;100296.28;4445406;32;33019;-79
2023/12/27 01:11:11;;;;;;;0.00;0.00;;;;;;;10.84;54.97;100305.13;4451807;32;32997;-78
2023/12/27 01:13:38;;;;;;;0.00;0.00;;;;;;;10.49;55.77;100309.00;4446276;32;33145;-78
2023/12/27 01:16:06;;;;;;;0.08;0.08;;;;;;;10.69;55.35;100318.87;4462771;32;33988;-79
2023/12/27 01:18:34;;;;;;;0.00;0.00;;;;;;;11.00;54.26;100319.47;4460628;32;32728;-79
2023/12/27 01:21:02;;;;;;;0.00;0.00;;;;;;;11.06;54.29;100326.31;4448237;32;33728;-80
2023/12/27 01:23:30;;;;;;;0.00;0.00;;;;;;;10.55;55.62;100327.28;4451710;32;33853;-79
2023/12/27 01:25:57;;;;;;;0.10;0.10;;;;;;;10.78;54.63;100329.13;4448689;32;32952;-79
2023/12/27 01:28:25;;;;;;;1.27;0.43;;;;;;;10.73;54.53;100336.34;4462835;32;33135;-79
2023/12/27 01:30:53;;;;;;;0.00;0.00;;;;;;;10.63;54.69;100345.50;4435060;32;32171;-79
2023/12/27 01:33:21;;;;;;;0.00;0.00;;;;;;;10.93;53.85;100354.97;4459480;32;34147;-79
2023/12/27 01:35:48;;;;;;;0.75;0.55;;;;;;;11.12;53.34;100341.97;4453195;32;32456;-79
2023/12/27 01:38:17;;;;;;;0.00;0.00;;;;;;;11.21;52.94;100343.41;4449471;32;33591;-79
2023/12/27 01:40:49;;;;;;;0.00;0.00;;;;;;;11.06;53.34;100342.16;4445894;32;34069;-79
2023/12/27 01:43:16;;;;;;;0.20;0.20;;;;;;;11.17;53.08;100333.84;4447129;32;34523;-79
2023/12/27 01:45:47;;;;;;;0.00;0.00;;;;;;;10.94;53.55;100332.91;4445252;32;33587;-78
2023/12/27 01:48:15;;;;;;;0.00;0.00;;;;;;;10.96;53.05;100331.06;4449047;32;35495;-77
2023/12/27 01:50:43;;;;;;;0.00;0.00;;;;;;;10.77;54.72;100337.94;4459927;32;33996;-78
2023/12/27 01:53:12;;;;;;;0.00;0.00;;;;;;;10.89;54.17;100332.22;4448056;32;33454;-78
2023/12/27 01:55:40;;;;;;;0.08;0.08;;;;;;;10.97;53.43;100335.47;4449607;32;32743;-78
2023/12/27 01:58:10;;;;;;;0.00;0.00;;;;;;;10.87;53.97;100344.66;4461086;32;32655;-78
2023/12/27 02:00:41;;;;;;;0.00;0.00;;;;;;;10.64;54.56;100337.53;4446244;32;32960;-78
2023/12/27 02:03:09;;;;;;;0.15;0.15;;;;;;;10.92;53.74;100342.69;4461253;32;31870;-78
2023/12/27 02:05:38;;;;;;;0.00;0.00;;;;;;;10.57;54.53;100348.34;4436163;32;33189;-78
2023/12/27 02:08:09;;;;;;;0.00;0.00;;;;;;;10.97;53.59;100340.75;4447433;32;33456;-78
2023/12/27 02:10:37;;;;;;;0.00;0.00;;;;;;;11.10;53.05;100335.84;4446313;32;33151;-78
2023/12/27 02:13:06;;;;;;;0.00;0.00;;;;;;;11.03;53.57;100332.59;4433515;32;33158;-79
2023/12/27 02:15:35;;;;;;;0.00;0.00;;;;;;;11.14;53.41;100342.75;4434267;32;32883;-78
2023/12/27 02:18:05;;;;;;;0.00;0.00;;;;;;;11.10;53.19;100342.91;4438673;32;32937;-78
2023/12/27 02:20:34;;;;;;;0.10;0.10;;;;;;;10.81;54.20;100350.13;4436717;32;33432;-77
2023/12/27 02:23:06;;;;;;;0.22;0.22;;;;;;;10.66;54.43;100361.25;4456674;32;32981;-78
2023/12/27 02:25:35;;;;;;;0.00;0.00;;;;;;;10.92;53.80;100369.13;4453448;32;34976;-78
2023/12/27 02:28:04;;;;;;;0.00;0.00;;;;;;;11.28;52.88;100358.94;4446454;32;33844;-78
2023/12/27 02:30:36;;;;;;;0.00;0.00;;;;;;;11.23;52.71;100362.69;4447722;32;33085;-77
2023/12/27 02:33:04;;;;;;;0.00;0.00;;;;;;;11.02;53.60;100373.16;4446805;32;32411;-78
2023/12/27 02:35:33;;;;;;;0.00;0.00;;;;;;;11.12;53.03;100373.66;4457884;32;34134;-78
2023/12/27 02:38:01;;;;;;;0.00;0.00;;;;;;;10.98;53.21;100363.59;4431654;32;32863;-77
2023/12/27 02:40:29;;;;;;;0.20;0.10;;;;;;;10.72;54.29;100372.44;4436106;32;33336;-78
2023/12/27 02:42:57;;;;;;;0.20;0.20;;;;;;;10.70;53.69;100362.87;4456178;32;34752;-78
2023/12/27 02:45:25;;;;;;;2.62;0.90;;;;;;;10.69;53.52;100369.06;4435751;32;33572;-77
2023/12/27 02:47:52;;;;;;;0.00;0.00;;;;;;;10.97;52.81;100367.16;4446845;32;32005;-78
2023/12/27 02:50:20;;;;;;;6.07;1.35;;;;;;;10.96;52.68;100364.56;4459165;32;33725;-78
2023/12/27 02:52:48;;;;;;;0.00;0.00;;;;;;;10.97;52.49;100369.81;4445149;32;33297;-78
2023/12/27 02:55:16;;;;;;;0.00;0.00;;;;;;;11.17;52.02;100362.94;4446587;32;33616;-78
2023/12/27 02:57:44;;;;;;;0.00;0.00;;;;;;;11.15;51.86;100370.03;4459605;32;33299;-78
2023/12/27 03:00:12;;;;;;;0.00;0.00;;;;;;;10.56;53.92;100380.97;4446535;32;33511;-78
2023/12/27 03:02:40;;;;;;;0.00;0.00;;;;;;;10.51;53.96;100384.62;4445528;32;33322;-79
2023/12/27 03:05:07;;;;;;;0.10;0.10;;;;;;;10.75;53.23;100390.84;4431946;32;32419;-79
2023/12/27 03:07:35;;;;;;;0.32;0.32;;;;;;;10.72;53.00;100392.72;4445800;32;31887;-79
2023/12/27 03:10:03;;;;;;;0.00;0.00;;;;;;;10.48;53.71;100399.69;4446428;32;33197;-79
2023/12/27 03:12:31;;;;;;;0.00;0.00;;;;;;;10.52;53.63;100394.25;4443624;32;35241;-79
2023/12/27 03:14:59;;;;;;;0.30;0.10;;;;;;;10.42;54.01;100400.78;4435539;32;32298;-79
2023/12/27 03:17:27;;;;;;;0.00;0.00;;;;;;;10.27;54.39;100398.66;4458485;32;33631;-79
2023/12/27 03:19:54;;;;;;;0.00;0.00;;;;;;;10.57;53.63;100409.09;4444067;32;34624;-78
2023/12/27 03:22:22;;;;;;;0.10;0.08;;;;;;;10.19;54.66;100419.09;4445106;32;33071;-78
2023/12/27 03:24:51;;;;;;;0.00;0.00;;;;;;;10.41;54.02;100414.91;4444343;32;33188;-78
2023/12/27 03:27:18;;;;;;;0.00;0.00;;;;;;;10.40;53.59;100426.38;4447502;32;32751;-78
2023/12/27 03:29:46;;;;;;;0.15;0.10;;;;;;;10.45;53.88;100423.59;4457855;32;33922;-78
2023/12/27 03:32:14;;;;;;;0.08;0.08;;;;;;;10.48;53.59;100421.69;4456988;32;33589;-78
2023/12/27 03:34:43;;;;;;;0.00;0.00;;;;;;;10.47;53.41;100419.97;4460198;32;32629;-78
2023/12/27 03:37:12;;;;;;;0.00;0.00;;;;;;;10.42;53.57;100421.91;4451140;32;31840;-78
2023/12/27 03:39:42;;;;;;;0.08;0.08;;;;;;;10.04;54.42;100427.53;4444361;32;34195;-78
2023/12/27 03:42:12;;;;;;;0.30;0.30;;;;;;;10.06;54.54;100434.47;4447032;32;33430;-78
2023/12/27 03:44:42;;;;;;;0.00;0.00;;;;;;;10.21;53.78;100423.44;4449535;32;33040;-78
2023/12/27 03:47:09;;;;;;;0.00;0.00;;;;;;;10.21;53.95;100433.13;4445635;32;33128;-79
2023/12/27 03:49:37;;;;;;;0.00;0.00;;;;;;;9.88;54.79;100441.19;4454068;32;34118;-79
2023/12/27 03:52:05;;;;;;;0.00;0.00;;;;;;;10.08;53.99;100439.72;4450239;32;33838;-79
2023/12/27 03:54:33;;;;;;;0.00;0.00;;;;;;;9.93;54.56;100444.56;4466609;32;33868;-79
2023/12/27 03:57:00;;;;;;;0.20;0.20;;;;;;;9.94;54.53;100448.91;4452804;32;32682;-79
2023/12/27 03:59:29;;;;;;;0.00;0.00;;;;;;;9.90;54.38;100452.53;4439954;32;33956;-79
2023/12/27 04:01:56;;;;;;;0.00;0.00;;;;;;;9.98;54.02;100463.72;4435608;32;33151;-79
2023/12/27 04:04:24;;;;;;;0.75;0.75;;;;;;;9.83;54.42;100455.44;4439693;32;33835;-79
2023/12/27 04:06:53;;;;;;;0.00;0.00;;;;;;;9.74;54.60;100449.53;4427859;32;33030;-79
2023/12/27 04:09:20;;;;;;;0.05;0.05;;;;;;;9.68;54.93;100462.00;4431864;32;32302;-79
2023/12/27 04:11:48;;;;;;;0.00;0.00;;;;;;;9.65;54.95;100464.75;4436210;32;34167;-79
2023/12/27 04:14:17;;;;;;;0.00;0.00;;;;;;;9.60;54.73;100458.75;4436957;32;32733;-78
2023/12/27 04:16:44;;;;;;;0.00;0.00;;;;;;;9.54;55.24;100458.91;4449106;32;32764;-79
2023/12/27 04:19:12;;;;;;;0.10;0.10;;;;;;;9.34;55.37;100449.78;4453396;32;33610;-79
2023/12/27 04:21:41;;;;;;;0.00;0.00;;;;;;;9.17;56.47;100465.22;4439871;32;33369;-79
2023/12/27 04:24:09;;;;;;;0.00;0.00;;;;;;;9.26;55.09;100462.34;4439655;32;33881;-79
2023/12/27 04:26:41;;;;;;;0.00;0.00;;;;;;;8.98;55.91;100460.44;4440036;32;34372;-78
2023/12/27 04:29:09;;;;;;;0.00;0.00;;;;;;;8.65;56.84;100470.09;4439744;32;33108;-79
2023/12/27 04:31:37;;;;;;;0.00;0.00;;;;;;;8.73;56.96;100472.50;4439474;32;34032;-78
2023/12/27 04:34:06;;;;;;;0.00;0.00;;;;;;;8.69;56.98;100470.87;4440334;32;32612;-79
2023/12/27 04:36:35;;;;;;;1.55;0.68;;;;;;;8.78;56.77;100472.41;4436723;32;32877;-78
2023/12/27 04:39:03;;;;;;;0.00;0.00;;;;;;;8.61;57.28;100472.84;4447363;32;32351;-78
2023/12/27 04:41:31;;;;;;;0.00;0.00;;;;;;;8.66;56.77;100471.81;4436887;32;32806;-78
2023/12/27 04:43:59;;;;;;;0.00;0.00;;;;;;;8.47;58.17;100470.53;4427453;32;32146;-78
2023/12/27 04:46:27;;;;;;;0.10;0.10;;;;;;;8.46;57.94;100477.56;4439347;32;33572;-79
2023/12/27 04:48:55;;;;;;;0.80;0.52;;;;;;;8.63;57.63;100486.81;4462093;32;33938;-79
2023/12/27 04:51:23;;;;;;;0.00;0.00;;;;;;;8.75;57.05;100486.53;4461732;32;34022;-78
2023/12/27 04:53:55;;;;;;;0.00;0.00;;;;;;;8.85;56.80;100495.06;4462179;32;34580;-78
2023/12/27 04:56:22;;;;;;;1.00;0.55;;;;;;;8.78;56.88;100501.34;4435771;32;32604;-79
2023/12/27 04:58:51;;;;;;;0.00;0.00;;;;;;;8.70;56.71;100502.44;4462674;32;33512;-78
2023/12/27 05:01:18;;;;;;;0.00;0.00;;;;;;;8.70;56.53;100499.78;4460242;32;33605;-78
2023/12/27 05:03:46;;;;;;;0.00;0.00;;;;;;;8.85;56.10;100501.19;4464987;32;33704;-78
2023/12/27 05:06:14;;;;;;;0.00;0.00;;;;;;;8.79;56.29;100511.87;4461666;32;34018;-79
2023/12/27 05:08:43;;;;;;;0.00;0.00;;;;;;;8.80;56.27;100516.22;4454160;32;32723;-79
2023/12/27 05:11:11;;;;;;;0.00;0.00;;;;;;;8.77;56.41;100516.28;4450481;32;33903;-79
2023/12/27 05:13:40;;;;;;;0.00;0.00;;;;;;;9.01;55.67;100516.59;4450376;32;32888;-80
2023/12/27 05:16:12;;;;;;;0.00;0.00;;;;;;;8.97;56.22;100514.03;4448454;32;33576;-77
2023/12/27 05:18:41;;;;;;;0.00;0.00;;;;;;;9.05;55.97;100521.72;4448728;32;33588;-78
2023/12/27 05:21:11;;;;;;;0.30;0.30;;;;;;;8.84;56.10;100532.81;4434821;32;32140;-78
2023/12/27 05:23:38;;;;;;;0.00;0.00;;;;;;;8.93;56.01;100532.59;4463409;32;33550;-78
2023/12/27 05:26:06;;;;;;;0.00;0.00;;;;;;;9.01;55.90;100535.87;4445968;32;32904;-77
2023/12/27 05:28:34;;;;;;;0.00;0.00;;;;;;;9.16;55.86;100535.50;4448262;32;33639;-78
2023/12/27 05:31:02;;;;;;;0.05;0.05;;;;;;;9.27;55.25;100537.00;4435331;32;33025;-78
2023/12/27 05:33:30;;;;;;;0.00;0.00;;;;;;;9.47;54.54;100539.94;4433960;32;32997;-78
2023/12/27 05:35:58;;;;;;;0.10;0.10;;;;;;;9.27;54.69;100544.91;4449433;32;33858;-78
2023/12/27 05:38:25;;;;;;;0.13;0.13;;;;;;;9.06;55.20;100535.75;4446947;32;32603;-78
2023/12/27 05:40:53;;;;;;;0.00;0.00;;;;;;;8.82;55.85;100545.16;4452654;32;32596;-78
2023/12/27 05:43:21;;;;;;;0.00;0.00;;;;;;;8.85;55.79;100550.34;4447968;32;32973;-78
2023/12/27 05:45:48;;;;;;;1.67;0.17;;;;;;;8.85;56.17;100548.59;4448774;32;33223;-78
2023/12/27 05:48:16;;;;;;;0.00;0.00;;;;;;;8.81;56.28;100549.56;4441315;32;32958;-79
2023/12/27 05:50:44;;;;;;;1.27;0.98;;;;;;;8.72;56.55;100560.31;4440378;32;34217;-78
2023/12/27 05:53:12;;;;;;;0.00;0.00;;;;;;;8.82;56.36;100563.59;4461276;32;36110;-78
2023/12/27 05:55:41;;;;;;;0.00;0.00;;;;;;;8.85;56.03;100567.00;4446892;32;32803;-78
2023/12/27 05:58:09;;;;;;;0.03;0.03;;;;;;;8.77;56.18;100568.97;4441919;32;35515;-78
2023/12/27 06:00:37;;;;;;;0.20;0.20;;;;;;;8.83;55.67;100574.09;4460164;32;32485;-78
2023/12/27 06:03:06;;;;;;;0.00;0.00;;;;;;;8.42;57.13;100586.44;4460225;32;33995;-78
2023/12/27 06:05:33;;;;;;;0.00;0.00;;;;;;;8.30;57.65;100591.94;4446714;32;33500;-78
2023/12/27 06:08:01;;;;;;;0.10;0.10;;;;;;;8.27;57.34;100591.16;4446238;32;34038;-78
2023/12/27 06:10:30;;;;;;;0.00;0.00;;;;;;;8.35;57.14;100592.69;4444024;32;32782;-79
2023/12/27 06:12:57;;;;;;;0.15;0.03;;;;;;;8.26;57.46;100592.03;4446229;32;33873;-78
2023/12/27 06:15:25;;;;;;;0.00;0.00;;;;;;;8.25;57.20;100596.44;4448280;32;32884;-78
2023/12/27 06:17:53;;;;;;;0.00;0.00;;;;;;;8.10;57.62;100607.28;4459747;32;33705;-78
2023/12/27 06:20:21;;;;;;;0.08;0.05;;;;;;;8.11;57.12;100606.37;4460297;32;33623;-78
2023/12/27 06:22:50;;;;;;;0.00;0.00;;;;;;;8.20;56.78;100606.19;4447641;32;33691;-78
2023/12/27 06:25:18;;;;;;;0.08;0.08;;;;;;;8.04;57.35;100617.94;4452921;32;31884;-78
2023/12/27 06:27:46;;;;;;;0.03;0.03;;;;;;;7.83;57.42;100614.84;4442667;32;33061;-78
2023/12/27 06:30:14;;;;;;;0.20;0.20;;;;;;;7.71;58.09;100620.31;4448105;32;31518;-78
2023/12/27 06:32:42;;;;;;;0.47;0.47;;;;;;;7.78;57.50;100627.19;4461001;32;33525;-78
2023/12/27 06:35:09;;;;;;;3.45;2.08;;;;;;;7.66;58.02;100622.19;4442132;32;32370;-78
2023/12/27 06:37:37;;;;;;;0.93;0.90;;;;;;;7.31;58.64;100642.06;4459962;32;32448;-78
2023/12/27 06:40:08;;;;;;;1.80;1.55;;;;;;;7.35;59.15;100643.72;4436043;32;33252;-78
2023/12/27 06:42:36;;;;;;;1.35;0.80;;;;;;;7.33;59.12;100656.03;4461800;32;34279;-78
2023/12/27 06:45:05;;;;;;;0.43;0.25;;;;;;;7.33;59.01;100661.28;4456407;32;33751;-77
2023/12/27 06:47:33;;;;;;;0.20;0.20;;;;;;;7.10;60.66;100668.69;4447719;32;32021;-77
2023/12/27 06:50:03;;;;;;;0.00;0.00;;;;;;;7.14;60.37;100683.50;4436110;32;33941;-77
2023/12/27 06:52:31;;;;;;;0.00;0.00;;;;;;;7.15;60.37;100675.59;4445579;32;34826;-78
2023/12/27 06:54:59;;;;;;;0.10;0.10;;;;;;;7.21;60.63;100677.25;4446825;32;32811;-78
2023/12/27 06:57:26;;;;;;;0.62;0.62;;;;;;;7.32;60.36;100693.72;4440870;32;32431;-77
2023/12/27 06:59:54;;;;;;;0.30;0.30;;;;;;;7.10;60.54;100700.19;4453136;32;32525;-77
2023/12/27 07:02:22;;;;;;;0.20;0.20;;;;;;;7.09;60.69;100703.72;4466187;32;34153;-77
2023/12/27 07:04:49;;;;;;;2.28;1.37;;;;;;;7.17;60.69;100699.22;4461414;32;33394;-78
2023/12/27 07:07:17;;;;;;;0.80;0.65;;;;;;;7.18;60.20;100700.94;4445280;32;33374;-78
2023/12/27 07:09:45;;;;;;;0.00;0.00;;;;;;;7.06;60.20;100698.50;4447374;32;33478;-79
2023/12/27 07:12:13;;;;;;;0.00;0.00;;;;;;;6.74;61.62;100698.94;4452733;32;33528;-77
2023/12/27 07:14:40;;;;;;;0.62;0.62;;;;;;;6.56;62.99;100703.56;4458345;32;33123;-77
2023/12/27 07:17:10;;;;;;;0.00;0.00;;;;;;;6.67;62.28;100701.66;4456924;32;33639;-77
2023/12/27 07:19:37;;;;;;;0.95;0.62;;;;;;;6.55;63.11;100707.09;4447262;32;32863;-78
2023/12/27 07:22:05;;;;;;;0.65;0.65;;;;;;;6.57;63.34;100713.19;4446251;32;32497;-77
2023/12/27 07:24:33;;;;;;;0.20;0.20;;;;;;;6.79;62.33;100718.13;4450097;32;31922;-78
2023/12/27 07:27:03;;;;;;;0.20;0.20;;;;;;;7.06;61.89;100725.63;4452933;32;34752;-78
2023/12/27 07:29:33;;;;;;;0.00;0.00;;;;;;;6.91;61.90;100731.09;4463586;32;34032;-78
2023/12/27 07:32:01;;;;;;;0.00;0.00;;;;;;;7.05;61.65;100738.78;4446471;32;32217;-78
2023/12/27 07:34:29;;;;;;;0.10;0.10;;;;;;;6.97;62.32;100735.37;4466171;32;33101;-79
2023/12/27 07:36:57;;;;;;;0.10;0.10;;;;;;;6.97;62.45;100733.62;4445921;32;32816;-78
2023/12/27 07:39:25;;;;;;;1.08;0.98;;;;;;;7.01;61.91;100737.09;4451745;32;34459;-78
2023/12/27 07:41:52;;;;;;;1.42;0.40;;;;;;;6.98;62.85;100745.00;4460308;32;33737;-79
2023/12/27 07:44:20;;;;;;;2.58;1.45;;;;;;;7.09;62.70;100745.72;4460645;32;33265;-78
2023/12/27 07:46:49;;;;;;;0.80;0.80;;;;;;;7.17;62.94;100757.00;4459490;32;33868;-78
2023/12/27 07:49:16;;;;;;;0.15;0.15;;;;;;;7.42;62.15;100755.72;4436099;32;33524;-78
2023/12/27 07:51:44;;;;;;;0.50;0.50;;;;;;;7.46;62.26;100755.69;4463688;32;34297;-80
2023/12/27 07:54:13;;;;;;;0.45;0.45;;;;;;;7.46;61.87;100760.94;4447846;32;33355;-78
2023/12/27 07:56:40;;;;;;;0.40;0.40;;;;;;;7.46;62.12;100756.56;4451983;32;33798;-78
2023/12/27 07:59:08;;;;;;;1.50;1.33;;;;;;;7.44;62.92;100774.09;4450291;32;33103;-78
2023/12/27 08:01:36;;;;;;;0.55;0.55;;;;;;;8.03;60.88;100772.25;4449374;32;34093;-78
2023/12/27 08:04:04;;;;;;;1.20;1.12;;;;;;;7.84;61.23;100782.22;4451272;32;33079;-79
2023/12/27 08:06:32;;;;;;;2.28;1.70;;;;;;;8.06;61.04;100784.47;4449854;32;31868;-78
2023/12/27 08:09:02;;;;;;;1.05;1.05;;;;;;;8.07;61.08;100791.47;4446744;32;33613;-79
2023/12/27 08:11:30;;;;;;;0.82;0.77;;;;;;;7.82;62.26;100793.66;4465170;32;33428;-78
2023/12/27 08:13:58;;;;;;;0.88;0.88;;;;;;;7.89;62.11;100788.28;4430261;32;33093;-78
2023/12/27 08:16:26;;;;;;;0.17;0.17;;;;;;;8.07;62.30;100788.81;4457642;32;33444;-78
2023/12/27 08:18:54;;;;;;;0.08;0.08;;;;;;;8.35;61.87;100779.53;4449782;32;33946;-78
2023/12/27 08:21:23;;;;;;;1.30;0.82;;;;;;;8.58;61.88;100773.00;4449850;32;33496;-78
2023/12/27 08:23:51;;;;;;;0.85;0.85;;;;;;;8.70;61.36;100783.28;4434495;32;32609;-79
2023/12/27 08:26:20;;;;;;;0.60;0.60;;;;;;;8.82;60.42;100776.91;4448674;32;33797;-78
2023/12/27 08:28:48;;;;;;;0.00;0.00;;;;;;;8.93;59.95;100785.47;4445744;32;33843;-78
2023/12/27 08:31:16;;;;;;;0.10;0.10;;;;;;;9.17;59.43;100779.66;4434651;32;34115;-78
2023/12/27 08:33:48;;;;;;;0.40;0.25;;;;;;;9.59;58.72;100789.22;4446544;32;33770;-79
2023/12/27 08:36:16;;;;;;;;;;;;;;;9.80;57.43;100793.13;4449820;32;33853;-79
2023/12/27 08:38:44;;;;;;;0.00;0.00;;;;;;;10.06;56.77;100793.31;4444779;32;34302;-79
2023/12/27 08:41:11;;;;;;;0.20;0.20;;;;;;;10.00;56.71;100809.31;4447475;32;34160;-80
2023/12/27 08:43:42;;;;;;;0.52;0.43;;;;;;;10.27;56.18;100812.19;4461305;32;34409;-80
2023/12/27 08:46:11;;;;;;;0.00;0.00;;;;;;;10.39;55.97;100812.72;4451009;32;31456;-84
2023/12/27 08:48:39;;;;;;;0.85;0.85;;;;;;;10.34;56.25;100814.59;4444573;32;33678;-80
2023/12/27 08:51:09;;;;;;;0.00;0.00;;;;;;;10.77;55.49;100814.28;4463171;32;35738;-80
2023/12/27 08:53:37;;;;;;;0.20;0.20;;;;;;;11.12;54.70;100815.06;4462273;32;32645;-80
2023/12/27 08:56:05;;;;;;;0.57;0.57;;;;;;;11.25;54.38;100815.53;4448411;32;34050;-81
2023/12/27 08:58:32;;;;;;;0.22;0.22;;;;;;;11.04;54.24;100814.41;4460967;32;34668;-78
2023/12/27 09:01:01;;;;;;;0.20;0.20;;;;;;;11.02;53.71;100819.75;4422570;32;33409;-78
2023/12/27 09:03:29;;;;;;;0.00;0.00;;;;;;;11.22;53.08;100828.88;4461644;32;35740;-78
2023/12/27 09:05:57;;;;;;;0.00;0.00;;;;;;;11.59;52.91;100836.56;4461126;32;33483;-78
2023/12/27 09:08:26;;;;;;;0.00;0.00;;;;;;;11.69;52.90;100847.72;4445645;32;33010;-79
2023/12/27 09:10:53;;;;;;;0.05;0.00;;;;;;;11.61;52.89;100849.72;4463891;32;33681;-79
2023/12/27 09:13:21;;;;;;;2.05;0.20;;;;;;;11.74;52.89;100843.13;4444320;32;31982;-79
2023/12/27 09:15:49;;;;;;;0.00;0.00;;;;;;;12.33;50.99;100842.97;4446356;32;33947;-78
2023/12/27 09:18:16;;;;;;;0.00;0.00;;;;;;;12.36;50.75;100845.53;4461210;32;32846;-78
2023/12/27 09:20:45;;;;;;;0.10;0.10;;;;;;;12.28;50.73;100839.59;4446746;32;34087;-78
2023/12/27 09:23:13;;;;;;;0.00;0.00;;;;;;;12.29;50.66;100838.69;4434997;32;33852;-78
2023/12/27 09:25:40;;;;;;;0.08;0.08;;;;;;;12.17;51.27;100844.41;4460498;32;34430;-80
2023/12/27 09:28:08;;;;;;;1.55;0.75;;;;;;;12.12;51.22;100846.34;4449258;32;33453;-78
2023/12/27 09:30:36;;;;;;;0.03;0.03;;;;;;;12.07;51.66;100850.94;4447446;32;33492;-78
2023/12/27 09:33:04;;;;;;;0.25;0.25;;;;;;;11.97;52.23;100858.31;4445896;32;32910;-78
2023/12/27 09:35:32;;;;;;;2.28;1.55;;;;;;;12.00;51.95;100859.06;4435980;32;33664;-79
2023/12/27 09:38:00;;;;;;;0.52;0.25;;;;;;;11.53;53.84;100855.25;4451088;32;33136;-79
2023/12/27 09:40:28;;;;;;;0.00;0.00;;;;;;;11.68;53.70;100851.25;4451674;32;32623;-78
2023/12/27 09:42:56;;;;;;;0.00;0.00;;;;;;;11.72;53.24;100851.09;4434627;32;32532;-78
2023/12/27 09:45:25;;;;;;;0.30;0.10;;;;;;;11.73;53.11;100850.22;4446698;32;32795;-79
2023/12/27 09:47:53;;;;;;;0.00;0.00;;;;;;;11.60;53.51;100845.34;4447207;32;32638;-78
2023/12/27 09:50:21;;;;;;;0.00;0.00;;;;;;;11.77;52.53;100845.66;4459385;32;33756;-78
2023/12/27 09:52:50;;;;;;;0.00;0.00;;;;;;;11.96;50.65;100851.25;4452016;32;33083;-79
2023/12/27 09:55:17;;;;;;;0.00;0.00;;;;;;;11.99;50.73;100853.81;4448089;32;32507;-78
2023/12/27 09:57:45;;;;;;;0.03;0.03;;;;;;;11.74;51.67;100851.06;4445475;32;32365;-78
2023/12/27 10:00:14;;;;;;;0.00;0.00;;;;;;;11.99;50.34;100852.03;4459954;32;33262;-78
2023/12/27 10:02:44;;;;;;;0.28;0.28;;;;;;;12.10;50.01;100848.16;4450844;32;33868;-78
2023/12/27 10:05:16;;;;;;;0.05;0.05;;;;;;;11.79;50.83;100850.00;4446597;32;33321;-78
2023/12/27 10:07:44;;;;;;;0.00;0.00;;;;;;;12.12;50.07;100841.06;4459262;32;33565;-78
2023/12/27 10:10:13;;;;;;;0.03;0.03;;;;;;;11.68;51.75;100846.84;4459181;32;34688;-78
2023/12/27 10:12:54;;;;;;;0.00;0.00;;;;;;;11.42;52.57;100836.19;4461797;32;33504;-78
2023/12/27 10:15:22;;;;;;;0.00;0.00;;;;;;;11.78;51.82;100844.78;4448125;32;32753;-78
2023/12/27 10:17:50;;;;;;;0.40;0.37;;;;;;;11.69;51.04;100834.47;4437285;32;32969;-78
2023/12/27 10:20:38;;;;;;;0.10;0.10;;;;;;;11.57;52.08;100830.44;4453800;32;33596;-78
2023/12/27 10:23:06;;;;;;;0.10;0.00;;;;;;;12.03;50.49;100836.94;4449023;32;32673;-79
2023/12/27 10:25:35;;;;;;;1.87;1.23;;;;;;;12.13;50.50;100826.91;4461117;32;33703;-78
2023/12/27 10:28:03;;;;;;;0.35;0.35;;;;;;;11.79;51.46;100833.28;4446986;32;33936;-78
2023/12/27 10:30:30;;;;;;;0.57;0.30;;;;;;;12.64;48.88;100833.97;4447861;32;33756;-78
2023/12/27 10:33:00;;;;;;;0.10;0.10;;;;;;;12.56;49.70;100836.87;4458429;32;32622;-78
2023/12/27 10:35:31;;;;;;;0.00;0.00;;;;;;;12.62;47.82;100838.44;4438523;32;32603;-80
2023/12/27 10:38:06;;;;;;;0.25;0.17;;;;;;;13.09;47.62;100836.69;4448265;32;33343;-78
2023/12/27 10:40:35;;;;;;;0.00;0.00;;;;;;;12.98;47.19;100831.81;4445468;32;32713;-78
2023/12/27 10:43:03;;;;;;;0.47;0.17;;;;;;;13.76;45.50;100838.53;4462990;31;32817;-78
2023/12/27 10:45:31;;;;;;;0.00;0.00;;;;;;;13.72;46.16;100832.50;4459275;32;33279;-78
2023/12/27 10:48:05;;;;;;;1.27;0.55;;;;;;;13.60;46.45;100833.00;4446050;32;31595;-78
2023/12/27 10:50:34;;;;;;;1.10;0.15;;;;;;;13.40;45.88;100840.87;4462043;32;33833;-78
2023/12/27 10:53:04;;;;;;;1.65;0.75;;;;;;;13.51;46.48;100836.87;4459778;32;33301;-78
2023/12/27 10:55:33;;;;;;;0.32;0.32;;;;;;;13.97;43.92;100829.72;4445407;32;32609;-78
2023/12/27 10:58:03;;;;;;;0.00;0.00;;;;;;;13.36;44.61;100839.25;4434407;32;32986;-78
2023/12/27 11:00:31;;;;;;;0.00;0.00;;;;;;;13.91;42.84;100837.94;4462751;32;32976;-78
2023/12/27 11:02:59;;;;;;;0.00;0.00;;;;;;;13.71;43.24;100829.91;4446425;32;32953;-78
2023/12/27 11:05:28;;;;;;;2.75;1.27;;;;;;;13.67;44.67;100825.62;4444767;32;32462;-78
2023/12/27 11:07:56;;;;;;;0.50;0.37;;;;;;;13.62;44.52;100823.16;4460482;32;34811;-78
2023/12/27 11:10:24;;;;;;;5.18;0.85;;;;;;;14.09;42.83;100821.22;4437169;32;33652;-78
2023/12/27 11:12:54;;;;;;;0.17;0.17;;;;;;;13.69;42.91;100821.16;4461194;32;32139;-78
2023/12/27 11:15:21;;;;;;;0.00;0.00;;;;;;;14.28;41.88;100807.16;4446011;32;34097;-78
2023/12/27 11:17:49;;;;;;;0.00;0.00;;;;;;;14.29;41.21;100800.91;4444032;32;33278;-78
2023/12/27 11:20:20;;;;;;;0.00;0.00;;;;;;;14.44;41.15;100802.94;4445603;32;33610;-79
2023/12/27 11:22:48;;;;;;;2.37;0.70;;;;;;;14.08;41.44;100803.56;4450109;32;33835;-79
2023/12/27 11:25:16;;;;;;;0.00;0.00;;;;;;;13.84;42.45;100805.44;4453938;32;33814;-80
2023/12/27 11:27:44;;;;;;;0.28;0.28;;;;;;;13.83;42.93;100792.25;4437755;32;34596;-80
2023/12/27 11:30:13;;;;;;;0.70;0.43;;;;;;;13.61;43.58;100786.09;4461156;32;34065;-79
2023/12/27 11:32:41;;;;;;;0.00;0.00;;;;;;;14.24;42.16;100784.31;4451944;32;31432;-79
2023/12/27 11:35:11;;;;;;;4.12;1.00;;;;;;;13.73;43.92;100788.25;4456004;32;33778;-79